sensor_id;sensor_type;location;lat;lon;timestamp;pressure;altitude;pressure_sealevel;temperature;humidity
71956;BME280;59829;50.562;6.258;2023-09-07T00:05:08;96219.81;;;16.88;83.01
71956;BME280;59829;50.562;6.258;2023-09-07T00:15:09;96198.84;;;16.74;83.81
71956;BME280;59829;50.562;6.258;2023-09-07T00:25:10;96201.25;;;16.57;83.99
71956;BME280;59829;50.562;6.258;2023-09-07T00:35:10;96194.03;;;16.43;84.21
71956;BME280;59829;50.562;6.258;2023-09-07T00:45:11;96187.38;;;16.41;84.90
71956;BME280;59829;50.562;6.258;2023-09-07T00:55:12;96186.13;;;16.27;85.15
71956;BME280;59829;50.562;6.258;2023-09-07T01:05:13;96182.44;;;16.12;85.65
71956;BME280;59829;50.562;6.258;2023-09-07T01:15:13;96176.53;;;16.02;86.09
71956;BME280;59829;50.562;6.258;2023-09-07T01:25:14;96170.59;;;15.91;86.36
71956;BME280;59829;50.562;6.258;2023-09-07T01:35:16;96166.34;;;15.82;86.68
71956;BME280;59829;50.562;6.258;2023-09-07T01:45:16;96163.13;;;15.71;86.92
71956;BME280;59829;50.562;6.258;2023-09-07T01:55:17;96149.59;;;15.59;87.31
71956;BME280;59829;50.562;6.258;2023-09-07T02:05:17;96140.94;;;15.50;87.99
71956;BME280;59829;50.562;6.258;2023-09-07T02:15:18;96136.88;;;15.48;88.21
71956;BME280;59829;50.562;6.258;2023-09-07T02:25:18;96130.94;;;15.37;88.28
71956;BME280;59829;50.562;6.258;2023-09-07T02:35:18;96133.44;;;15.29;88.70
71956;BME280;59829;50.562;6.258;2023-09-07T02:45:19;96144.88;;;15.17;88.95
71956;BME280;59829;50.562;6.258;2023-09-07T02:55:19;96150.22;;;15.06;89.23
71956;BME280;59829;50.562;6.258;2023-09-07T03:05:19;96142.25;;;14.99;89.76
71956;BME280;59829;50.562;6.258;2023-09-07T03:15:20;96138.19;;;14.97;90.12
71956;BME280;59829;50.562;6.258;2023-09-07T03:25:20;96135.69;;;15.05;90.65
71956;BME280;59829;50.562;6.258;2023-09-07T03:35:20;96132.66;;;15.19;91.02
71956;BME280;59829;50.562;6.258;2023-09-07T03:45:21;96126.66;;;15.28;91.34
71956;BME280;59829;50.562;6.258;2023-09-07T03:55:21;96122.81;;;15.32;91.39
71956;BME280;59829;50.562;6.258;2023-09-07T04:05:21;96126.06;;;15.34;91.79
71956;BME280;59829;50.562;6.258;2023-09-07T04:15:22;96116.78;;;15.42;92.29
71956;BME280;59829;50.562;6.258;2023-09-07T04:25:22;96107.81;;;15.46;92.42
71956;BME280;59829;50.562;6.258;2023-09-07T04:35:28;96105.50;;;15.43;92.43
71956;BME280;59829;50.562;6.258;2023-09-07T04:45:29;96101.66;;;15.29;92.13
71956;BME280;59829;50.562;6.258;2023-09-07T04:55:29;96112.00;;;15.19;92.50
71956;BME280;59829;50.562;6.258;2023-09-07T05:05:30;96098.72;;;15.14;92.67
71956;BME280;59829;50.562;6.258;2023-09-07T05:15:30;96111.13;;;15.01;92.52
71956;BME280;59829;50.562;6.258;2023-09-07T05:25:30;96116.19;;;14.93;92.66
71956;BME280;59829;50.562;6.258;2023-09-07T05:35:31;96116.19;;;14.93;92.71
71956;BME280;59829;50.562;6.258;2023-09-07T05:45:38;96124.19;;;14.90;93.13
71956;BME280;59829;50.562;6.258;2023-09-07T05:55:38;96127.34;;;14.93;93.31
71956;BME280;59829;50.562;6.258;2023-09-07T06:05:39;96127.81;;;15.06;93.95
71956;BME280;59829;50.562;6.258;2023-09-07T06:15:39;96135.06;;;15.30;94.74
71956;BME280;59829;50.562;6.258;2023-09-07T06:25:39;96141.69;;;15.60;95.43
71956;BME280;59829;50.562;6.258;2023-09-07T06:35:40;96147.72;;;15.96;96.38
71956;BME280;59829;50.562;6.258;2023-09-07T06:45:40;96147.75;;;16.32;97.13
71956;BME280;59829;50.562;6.258;2023-09-07T06:55:41;96159.06;;;16.75;98.11
71956;BME280;59829;50.562;6.258;2023-09-07T07:05:41;96175.34;;;17.19;98.32
71956;BME280;59829;50.562;6.258;2023-09-07T07:15:42;96176.19;;;17.62;99.22
71956;BME280;59829;50.562;6.258;2023-09-07T07:25:42;96177.13;;;18.03;99.34
71956;BME280;59829;50.562;6.258;2023-09-07T07:35:43;96182.38;;;18.44;98.50
71956;BME280;59829;50.562;6.258;2023-09-07T07:45:43;96179.16;;;18.82;98.22
71956;BME280;59829;50.562;6.258;2023-09-07T07:55:43;96175.53;;;19.16;97.25
71956;BME280;59829;50.562;6.258;2023-09-07T08:05:43;96182.25;;;19.49;96.37
71956;BME280;59829;50.562;6.258;2023-09-07T08:15:44;96180.81;;;19.78;95.24
71956;BME280;59829;50.562;6.258;2023-09-07T08:25:44;96178.13;;;20.02;94.13
71956;BME280;59829;50.562;6.258;2023-09-07T08:35:51;96173.72;;;20.26;93.04
71956;BME280;59829;50.562;6.258;2023-09-07T08:45:57;96165.78;;;20.50;91.31
71956;BME280;59829;50.562;6.258;2023-09-07T08:56:01;96174.00;;;20.76;89.81
71956;BME280;59829;50.562;6.258;2023-09-07T09:06:03;96172.34;;;20.98;88.57
71956;BME280;59829;50.562;6.258;2023-09-07T09:16:03;96170.16;;;21.25;87.15
71956;BME280;59829;50.562;6.258;2023-09-07T09:26:04;96173.66;;;21.47;85.74
71956;BME280;59829;50.562;6.258;2023-09-07T09:36:06;96165.88;;;21.68;84.00
71956;BME280;59829;50.562;6.258;2023-09-07T09:46:07;96155.53;;;21.89;82.67
71956;BME280;59829;50.562;6.258;2023-09-07T09:56:08;96155.94;;;22.08;80.98
71956;BME280;59829;50.562;6.258;2023-09-07T10:06:09;96149.50;;;22.25;79.57
71956;BME280;59829;50.562;6.258;2023-09-07T10:16:09;96137.47;;;22.52;78.02
71956;BME280;59829;50.562;6.258;2023-09-07T10:26:17;96121.97;;;22.72;76.76
71956;BME280;59829;50.562;6.258;2023-09-07T10:36:25;96121.34;;;22.91;75.79
71956;BME280;59829;50.562;6.258;2023-09-07T10:46:26;96123.88;;;23.12;74.88
71956;BME280;59829;50.562;6.258;2023-09-07T10:56:26;96107.28;;;23.27;74.05
71956;BME280;59829;50.562;6.258;2023-09-07T11:06:27;96103.53;;;23.49;73.16
71956;BME280;59829;50.562;6.258;2023-09-07T11:16:28;96097.38;;;23.63;72.59
71956;BME280;59829;50.562;6.258;2023-09-07T11:26:28;96099.25;;;23.83;71.97
71956;BME280;59829;50.562;6.258;2023-09-07T11:36:29;96091.59;;;23.94;71.00
71956;BME280;59829;50.562;6.258;2023-09-07T11:46:32;96089.22;;;24.06;70.47
71956;BME280;59829;50.562;6.258;2023-09-07T11:56:33;96076.34;;;24.11;70.16
71956;BME280;59829;50.562;6.258;2023-09-07T12:06:38;96074.75;;;24.23;69.54
71956;BME280;59829;50.562;6.258;2023-09-07T12:16:38;96078.81;;;24.32;69.48
71956;BME280;59829;50.562;6.258;2023-09-07T12:26:38;96067.53;;;24.39;68.24
71956;BME280;59829;50.562;6.258;2023-09-07T12:36:39;96080.41;;;24.47;66.81
71956;BME280;59829;50.562;6.258;2023-09-07T12:46:39;96060.69;;;24.51;65.14
71956;BME280;59829;50.562;6.258;2023-09-07T12:56:39;96056.44;;;24.56;62.57
71956;BME280;59829;50.562;6.258;2023-09-07T13:06:40;96055.22;;;24.72;60.91
71956;BME280;59829;50.562;6.258;2023-09-07T13:16:40;96037.44;;;24.81;59.27
71956;BME280;59829;50.562;6.258;2023-09-07T13:26:41;96034.00;;;24.93;57.67
71956;BME280;59829;50.562;6.258;2023-09-07T13:36:41;96037.25;;;25.02;56.60
71956;BME280;59829;50.562;6.258;2023-09-07T13:46:43;96028.69;;;25.20;55.40
71956;BME280;59829;50.562;6.258;2023-09-07T13:56:43;96021.81;;;25.25;54.46
71956;BME280;59829;50.562;6.258;2023-09-07T14:06:45;96025.19;;;25.39;53.39
71956;BME280;59829;50.562;6.258;2023-09-07T14:16:45;96018.44;;;25.57;52.62
71956;BME280;59829;50.562;6.258;2023-09-07T14:26:45;96013.50;;;25.67;51.41
71956;BME280;59829;50.562;6.258;2023-09-07T14:36:46;96019.94;;;25.77;50.94
71956;BME280;59829;50.562;6.258;2023-09-07T14:46:46;96028.06;;;26.01;50.21
71956;BME280;59829;50.562;6.258;2023-09-07T14:56:49;96027.75;;;26.15;50.54
71956;BME280;59829;50.562;6.258;2023-09-07T15:06:49;96017.50;;;26.39;51.13
71956;BME280;59829;50.562;6.258;2023-09-07T15:16:49;96016.47;;;26.40;51.44
71956;BME280;59829;50.562;6.258;2023-09-07T15:26:50;96005.78;;;26.35;51.57
71956;BME280;59829;50.562;6.258;2023-09-07T15:36:50;96001.97;;;26.31;51.77
71956;BME280;59829;50.562;6.258;2023-09-07T15:46:50;96006.06;;;26.27;51.77
71956;BME280;59829;50.562;6.258;2023-09-07T15:56:51;95998.69;;;26.42;51.23
71956;BME280;59829;50.562;6.258;2023-09-07T16:06:51;95990.72;;;28.35;50.31
71956;BME280;59829;50.562;6.258;2023-09-07T16:16:52;95985.59;;;31.17;47.39
71956;BME280;59829;50.562;6.258;2023-09-07T16:26:53;95982.56;;;31.52;43.13
71956;BME280;59829;50.562;6.258;2023-09-07T16:36:53;95986.19;;;29.46;43.86
71956;BME280;59829;50.562;6.258;2023-09-07T16:46:53;95990.91;;;27.99;45.27
71956;BME280;59829;50.562;6.258;2023-09-07T16:56:54;95996.22;;;27.20;46.45
71956;BME280;59829;50.562;6.258;2023-09-07T17:06:54;95996.06;;;26.79;47.33
71956;BME280;59829;50.562;6.258;2023-09-07T17:16:55;96001.44;;;26.47;48.25
71956;BME280;59829;50.562;6.258;2023-09-07T17:26:56;96013.78;;;26.22;48.31
71956;BME280;59829;50.562;6.258;2023-09-07T17:36:57;96020.16;;;26.07;48.99
71956;BME280;59829;50.562;6.258;2023-09-07T17:46:57;96017.47;;;25.89;49.72
71956;BME280;59829;50.562;6.258;2023-09-07T17:56:57;96028.28;;;25.61;50.36
71956;BME280;59829;50.562;6.258;2023-09-07T18:06:58;96034.59;;;25.09;51.06
71956;BME280;59829;50.562;6.258;2023-09-07T18:16:58;96038.09;;;24.56;52.33
71956;BME280;59829;50.562;6.258;2023-09-07T18:26:58;96046.94;;;24.09;53.36
71956;BME280;59829;50.562;6.258;2023-09-07T18:36:59;96055.13;;;23.60;54.21
71956;BME280;59829;50.562;6.258;2023-09-07T18:46:59;96058.16;;;23.15;55.41
71956;BME280;59829;50.562;6.258;2023-09-07T18:56:59;96064.56;;;22.78;56.57
71956;BME280;59829;50.562;6.258;2023-09-07T19:07:00;96057.72;;;22.49;57.41
71956;BME280;59829;50.562;6.258;2023-09-07T19:17:00;96057.34;;;22.24;57.97
71956;BME280;59829;50.562;6.258;2023-09-07T19:27:01;96053.81;;;21.89;58.63
71956;BME280;59829;50.562;6.258;2023-09-07T19:37:03;96076.66;;;21.51;59.28
71956;BME280;59829;50.562;6.258;2023-09-07T19:47:03;96074.91;;;21.22;59.99
71956;BME280;59829;50.562;6.258;2023-09-07T19:57:04;96074.03;;;21.00;60.75
71956;BME280;59829;50.562;6.258;2023-09-07T20:07:04;96065.22;;;20.87;61.91
71956;BME280;59829;50.562;6.258;2023-09-07T20:17:04;96066.56;;;20.83;62.84
71956;BME280;59829;50.562;6.258;2023-09-07T20:27:05;96070.78;;;20.84;63.87
71956;BME280;59829;50.562;6.258;2023-09-07T20:37:05;96065.22;;;20.72;64.08
71956;BME280;59829;50.562;6.258;2023-09-07T20:47:05;96068.16;;;20.54;65.26
71956;BME280;59829;50.562;6.258;2023-09-07T20:57:06;96065.69;;;20.38;65.89
71956;BME280;59829;50.562;6.258;2023-09-07T21:07:06;96064.34;;;20.42;66.73
71956;BME280;59829;50.562;6.258;2023-09-07T21:17:07;96068.50;;;20.51;67.09
71956;BME280;59829;50.562;6.258;2023-09-07T21:27:08;96068.88;;;20.48;67.65
71956;BME280;59829;50.562;6.258;2023-09-07T21:37:08;96071.81;;;20.45;68.28
71956;BME280;59829;50.562;6.258;2023-09-07T21:47:08;96060.09;;;20.49;68.77
71956;BME280;59829;50.562;6.258;2023-09-07T21:57:09;96062.03;;;20.47;69.12
71956;BME280;59829;50.562;6.258;2023-09-07T22:07:09;96060.41;;;20.46;69.10
71956;BME280;59829;50.562;6.258;2023-09-07T22:17:09;96050.59;;;20.33;69.45
71956;BME280;59829;50.562;6.258;2023-09-07T22:27:11;96046.22;;;20.11;69.82
71956;BME280;59829;50.562;6.258;2023-09-07T22:37:13;96042.66;;;19.89;69.92
71956;BME280;59829;50.562;6.258;2023-09-07T22:47:13;96042.44;;;19.76;70.46
71956;BME280;59829;50.562;6.258;2023-09-07T22:57:13;96041.59;;;19.52;70.68
71956;BME280;59829;50.562;6.258;2023-09-07T23:07:15;96043.63;;;19.34;71.79
71956;BME280;59829;50.562;6.258;2023-09-07T23:17:15;96043.84;;;19.24;71.80
71956;BME280;59829;50.562;6.258;2023-09-07T23:27:16;96047.19;;;19.02;72.34
71956;BME280;59829;50.562;6.258;2023-09-07T23:37:16;96058.09;;;18.97;73.21
71956;BME280;59829;50.562;6.258;2023-09-07T23:57:41;96053.28;;;18.78;74.63
